sensor_id;sensor_type;location;lat;lon;timestamp;temperature;humidity
34873;DHT22;21084;51.098;14.506;2023-04-25T00:01:50;6.80;65.00
34873;DHT22;21084;51.098;14.506;2023-04-25T00:04:19;6.70;64.60
34873;DHT22;21084;51.098;14.506;2023-04-25T00:06:49;6.70;65.20
34873;DHT22;21084;51.098;14.506;2023-04-25T00:09:19;6.70;65.40
34873;DHT22;21084;51.098;14.506;2023-04-25T00:11:48;6.70;65.20
34873;DHT22;21084;51.098;14.506;2023-04-25T00:14:18;6.60;65.50
34873;DHT22;21084;51.098;14.506;2023-04-25T00:16:47;6.60;65.60
34873;DHT22;21084;51.098;14.506;2023-04-25T00:19:15;6.50;65.70
34873;DHT22;21084;51.098;14.506;2023-04-25T00:21:44;6.50;65.70
34873;DHT22;21084;51.098;14.506;2023-04-25T00:24:13;6.50;65.80
34873;DHT22;21084;51.098;14.506;2023-04-25T00:26:41;6.40;66.20
34873;DHT22;21084;51.098;14.506;2023-04-25T00:29:10;6.20;65.80
34873;DHT22;21084;51.098;14.506;2023-04-25T00:31:41;6.10;67.00
34873;DHT22;21084;51.098;14.506;2023-04-25T00:34:09;6.10;67.70
34873;DHT22;21084;51.098;14.506;2023-04-25T00:36:38;6.00;67.40
34873;DHT22;21084;51.098;14.506;2023-04-25T00:39:06;6.10;67.60
34873;DHT22;21084;51.098;14.506;2023-04-25T00:41:35;6.10;68.10
34873;DHT22;21084;51.098;14.506;2023-04-25T00:44:05;6.20;67.30
34873;DHT22;21084;51.098;14.506;2023-04-25T00:46:36;6.20;66.90
34873;DHT22;21084;51.098;14.506;2023-04-25T00:49:06;6.40;66.00
34873;DHT22;21084;51.098;14.506;2023-04-25T00:51:34;6.60;64.90
34873;DHT22;21084;51.098;14.506;2023-04-25T00:54:03;6.70;64.40
34873;DHT22;21084;51.098;14.506;2023-04-25T00:56:31;6.80;64.50
34873;DHT22;21084;51.098;14.506;2023-04-25T00:59:00;6.80;64.30
34873;DHT22;21084;51.098;14.506;2023-04-25T01:01:29;6.80;63.70
34873;DHT22;21084;51.098;14.506;2023-04-25T01:03:58;6.70;63.60
34873;DHT22;21084;51.098;14.506;2023-04-25T01:06:29;6.60;64.10
34873;DHT22;21084;51.098;14.506;2023-04-25T01:08:58;6.60;64.60
34873;DHT22;21084;51.098;14.506;2023-04-25T01:11:27;6.50;64.80
34873;DHT22;21084;51.098;14.506;2023-04-25T01:13:56;6.40;65.00
34873;DHT22;21084;51.098;14.506;2023-04-25T01:16:24;6.40;65.30
34873;DHT22;21084;51.098;14.506;2023-04-25T01:18:54;6.30;65.60
34873;DHT22;21084;51.098;14.506;2023-04-25T01:21:24;6.30;66.10
34873;DHT22;21084;51.098;14.506;2023-04-25T01:23:55;6.30;66.50
34873;DHT22;21084;51.098;14.506;2023-04-25T01:26:25;6.30;66.70
34873;DHT22;21084;51.098;14.506;2023-04-25T01:28:53;6.30;66.90
34873;DHT22;21084;51.098;14.506;2023-04-25T01:31:22;6.40;67.10
34873;DHT22;21084;51.098;14.506;2023-04-25T01:33:52;6.40;67.10
34873;DHT22;21084;51.098;14.506;2023-04-25T01:36:21;6.30;66.90
34873;DHT22;21084;51.098;14.506;2023-04-25T01:38:51;6.30;67.30
34873;DHT22;21084;51.098;14.506;2023-04-25T01:41:20;6.20;67.40
34873;DHT22;21084;51.098;14.506;2023-04-25T01:43:50;6.00;67.20
34873;DHT22;21084;51.098;14.506;2023-04-25T01:46:20;5.90;66.90
34873;DHT22;21084;51.098;14.506;2023-04-25T01:48:48;5.80;68.00
34873;DHT22;21084;51.098;14.506;2023-04-25T01:51:17;5.70;68.40
34873;DHT22;21084;51.098;14.506;2023-04-25T01:53:46;5.60;68.40
34873;DHT22;21084;51.098;14.506;2023-04-25T01:56:17;5.50;68.90
34873;DHT22;21084;51.098;14.506;2023-04-25T01:58:47;5.50;69.20
34873;DHT22;21084;51.098;14.506;2023-04-25T02:01:15;5.40;68.70
34873;DHT22;21084;51.098;14.506;2023-04-25T02:03:44;5.30;69.10
34873;DHT22;21084;51.098;14.506;2023-04-25T02:06:13;5.20;68.90
34873;DHT22;21084;51.098;14.506;2023-04-25T02:08:41;5.10;69.50
34873;DHT22;21084;51.098;14.506;2023-04-25T02:11:10;5.00;69.80
34873;DHT22;21084;51.098;14.506;2023-04-25T02:13:40;4.90;69.70
34873;DHT22;21084;51.098;14.506;2023-04-25T02:16:09;4.80;68.80
34873;DHT22;21084;51.098;14.506;2023-04-25T02:18:38;4.60;69.10
34873;DHT22;21084;51.098;14.506;2023-04-25T02:21:07;4.40;68.90
34873;DHT22;21084;51.098;14.506;2023-04-25T02:23:35;4.30;70.30
34873;DHT22;21084;51.098;14.506;2023-04-25T02:26:04;4.20;70.50
34873;DHT22;21084;51.098;14.506;2023-04-25T02:28:33;4.10;69.70
34873;DHT22;21084;51.098;14.506;2023-04-25T02:31:03;4.00;69.90
34873;DHT22;21084;51.098;14.506;2023-04-25T02:33:32;3.80;70.00
34873;DHT22;21084;51.098;14.506;2023-04-25T02:36:01;3.80;70.60
34873;DHT22;21084;51.098;14.506;2023-04-25T02:38:30;3.70;70.40
34873;DHT22;21084;51.098;14.506;2023-04-25T02:40:59;3.70;70.70
34873;DHT22;21084;51.098;14.506;2023-04-25T02:43:27;3.60;70.70
34873;DHT22;21084;51.098;14.506;2023-04-25T02:45:56;3.50;70.80
34873;DHT22;21084;51.098;14.506;2023-04-25T02:48:26;3.40;70.70
34873;DHT22;21084;51.098;14.506;2023-04-25T02:50:56;3.30;70.60
34873;DHT22;21084;51.098;14.506;2023-04-25T02:53:25;3.30;71.00
34873;DHT22;21084;51.098;14.506;2023-04-25T02:55:53;3.20;71.20
34873;DHT22;21084;51.098;14.506;2023-04-25T02:58:25;3.20;71.20
34873;DHT22;21084;51.098;14.506;2023-04-25T03:00:54;3.10;71.20
34873;DHT22;21084;51.098;14.506;2023-04-25T03:03:22;3.10;72.10
34873;DHT22;21084;51.098;14.506;2023-04-25T03:05:52;3.00;71.40
34873;DHT22;21084;51.098;14.506;2023-04-25T03:08:21;3.00;71.90
34873;DHT22;21084;51.098;14.506;2023-04-25T03:10:49;3.00;72.00
34873;DHT22;21084;51.098;14.506;2023-04-25T03:13:20;3.00;71.70
34873;DHT22;21084;51.098;14.506;2023-04-25T03:15:49;2.90;71.70
34873;DHT22;21084;51.098;14.506;2023-04-25T03:18:18;2.80;71.30
34873;DHT22;21084;51.098;14.506;2023-04-25T03:20:49;2.80;71.60
34873;DHT22;21084;51.098;14.506;2023-04-25T03:23:19;2.70;71.80
34873;DHT22;21084;51.098;14.506;2023-04-25T03:25:48;2.70;71.80
34873;DHT22;21084;51.098;14.506;2023-04-25T03:28:17;2.60;71.60
34873;DHT22;21084;51.098;14.506;2023-04-25T03:30:46;2.60;72.30
34873;DHT22;21084;51.098;14.506;2023-04-25T03:33:14;2.50;72.10
34873;DHT22;21084;51.098;14.506;2023-04-25T03:35:43;2.50;71.70
34873;DHT22;21084;51.098;14.506;2023-04-25T03:38:12;2.40;71.60
34873;DHT22;21084;51.098;14.506;2023-04-25T03:40:42;2.40;71.90
34873;DHT22;21084;51.098;14.506;2023-04-25T03:43:11;2.30;71.90
34873;DHT22;21084;51.098;14.506;2023-04-25T03:45:40;2.30;72.10
34873;DHT22;21084;51.098;14.506;2023-04-25T03:48:08;2.30;73.00
34873;DHT22;21084;51.098;14.506;2023-04-25T03:50:37;2.20;72.30
34873;DHT22;21084;51.098;14.506;2023-04-25T03:53:06;2.20;72.30
34873;DHT22;21084;51.098;14.506;2023-04-25T03:55:34;2.20;72.50
34873;DHT22;21084;51.098;14.506;2023-04-25T03:58:04;2.20;72.10
34873;DHT22;21084;51.098;14.506;2023-04-25T04:00:35;2.10;72.10
34873;DHT22;21084;51.098;14.506;2023-04-25T04:03:04;2.10;72.50
34873;DHT22;21084;51.098;14.506;2023-04-25T04:05:33;2.10;73.60
34873;DHT22;21084;51.098;14.506;2023-04-25T04:08:01;2.10;72.90
34873;DHT22;21084;51.098;14.506;2023-04-25T04:10:30;2.10;72.90
34873;DHT22;21084;51.098;14.506;2023-04-25T04:12:58;2.20;73.60
34873;DHT22;21084;51.098;14.506;2023-04-25T04:15:29;2.20;73.40
34873;DHT22;21084;51.098;14.506;2023-04-25T04:18:00;2.30;73.40
34873;DHT22;21084;51.098;14.506;2023-04-25T04:20:30;2.30;73.10
34873;DHT22;21084;51.098;14.506;2023-04-25T04:22:58;2.30;73.20
34873;DHT22;21084;51.098;14.506;2023-04-25T04:25:28;2.30;73.50
34873;DHT22;21084;51.098;14.506;2023-04-25T04:27:57;2.40;73.70
34873;DHT22;21084;51.098;14.506;2023-04-25T04:30:27;2.40;73.50
34873;DHT22;21084;51.098;14.506;2023-04-25T04:32:56;2.40;73.60
34873;DHT22;21084;51.098;14.506;2023-04-25T04:35:25;2.50;74.30
34873;DHT22;21084;51.098;14.506;2023-04-25T04:37:54;2.50;73.80
34873;DHT22;21084;51.098;14.506;2023-04-25T04:40:23;2.60;73.80
34873;DHT22;21084;51.098;14.506;2023-04-25T04:42:52;2.70;74.00
34873;DHT22;21084;51.098;14.506;2023-04-25T04:45:23;2.90;74.70
34873;DHT22;21084;51.098;14.506;2023-04-25T04:47:53;3.10;75.80
34873;DHT22;21084;51.098;14.506;2023-04-25T04:50:22;3.30;75.70
34873;DHT22;21084;51.098;14.506;2023-04-25T04:52:51;3.70;76.40
34873;DHT22;21084;51.098;14.506;2023-04-25T04:55:19;4.10;76.00
34873;DHT22;21084;51.098;14.506;2023-04-25T04:57:48;4.60;74.50
34873;DHT22;21084;51.098;14.506;2023-04-25T05:00:17;5.00;73.00
34873;DHT22;21084;51.098;14.506;2023-04-25T05:02:46;5.30;71.30
34873;DHT22;21084;51.098;14.506;2023-04-25T05:05:16;5.50;71.40
34873;DHT22;21084;51.098;14.506;2023-04-25T05:07:44;5.70;70.30
34873;DHT22;21084;51.098;14.506;2023-04-25T05:10:13;6.00;70.00
34873;DHT22;21084;51.098;14.506;2023-04-25T05:12:42;6.20;69.60
34873;DHT22;21084;51.098;14.506;2023-04-25T05:15:10;6.40;67.80
34873;DHT22;21084;51.098;14.506;2023-04-25T05:17:39;6.60;68.10
34873;DHT22;21084;51.098;14.506;2023-04-25T05:20:09;6.70;68.30
34873;DHT22;21084;51.098;14.506;2023-04-25T05:22:39;6.70;67.30
34873;DHT22;21084;51.098;14.506;2023-04-25T05:25:09;6.80;66.00
34873;DHT22;21084;51.098;14.506;2023-04-25T05:27:38;6.70;65.80
34873;DHT22;21084;51.098;14.506;2023-04-25T05:30:08;6.90;65.80
34873;DHT22;21084;51.098;14.506;2023-04-25T05:32:36;7.00;64.70
34873;DHT22;21084;51.098;14.506;2023-04-25T05:35:06;7.10;63.90
34873;DHT22;21084;51.098;14.506;2023-04-25T05:37:35;7.20;62.70
34873;DHT22;21084;51.098;14.506;2023-04-25T05:40:07;7.30;62.70
34873;DHT22;21084;51.098;14.506;2023-04-25T05:42:36;7.50;62.00
34873;DHT22;21084;51.098;14.506;2023-04-25T05:45:06;7.70;61.80
34873;DHT22;21084;51.098;14.506;2023-04-25T05:47:35;7.80;60.70
34873;DHT22;21084;51.098;14.506;2023-04-25T05:50:04;7.90;60.20
34873;DHT22;21084;51.098;14.506;2023-04-25T05:52:33;7.90;59.80
34873;DHT22;21084;51.098;14.506;2023-04-25T05:55:01;8.10;59.30
34873;DHT22;21084;51.098;14.506;2023-04-25T05:57:31;8.20;58.70
34873;DHT22;21084;51.098;14.506;2023-04-25T06:00:00;8.30;57.70
34873;DHT22;21084;51.098;14.506;2023-04-25T06:02:28;8.30;56.90
34873;DHT22;21084;51.098;14.506;2023-04-25T06:04:57;8.40;57.40
34873;DHT22;21084;51.098;14.506;2023-04-25T06:07:26;8.50;57.80
34873;DHT22;21084;51.098;14.506;2023-04-25T06:09:55;8.70;57.10
34873;DHT22;21084;51.098;14.506;2023-04-25T06:12:24;8.70;55.80
34873;DHT22;21084;51.098;14.506;2023-04-25T06:14:54;8.90;55.60
34873;DHT22;21084;51.098;14.506;2023-04-25T06:17:22;9.00;55.20
34873;DHT22;21084;51.098;14.506;2023-04-25T06:19:51;9.20;55.20
34873;DHT22;21084;51.098;14.506;2023-04-25T06:22:20;9.40;55.30
34873;DHT22;21084;51.098;14.506;2023-04-25T06:24:48;9.50;54.50
34873;DHT22;21084;51.098;14.506;2023-04-25T06:27:17;9.50;53.50
34873;DHT22;21084;51.098;14.506;2023-04-25T06:29:46;9.60;52.50
34873;DHT22;21084;51.098;14.506;2023-04-25T06:32:16;9.50;53.10
34873;DHT22;21084;51.098;14.506;2023-04-25T06:34:45;9.50;53.80
34873;DHT22;21084;51.098;14.506;2023-04-25T06:37:14;9.50;53.80
34873;DHT22;21084;51.098;14.506;2023-04-25T06:39:42;9.60;53.20
34873;DHT22;21084;51.098;14.506;2023-04-25T06:42:11;9.60;53.30
34873;DHT22;21084;51.098;14.506;2023-04-25T06:44:40;9.40;52.90
34873;DHT22;21084;51.098;14.506;2023-04-25T06:47:08;9.60;53.30
34873;DHT22;21084;51.098;14.506;2023-04-25T06:49:39;9.80;53.60
34873;DHT22;21084;51.098;14.506;2023-04-25T06:52:08;10.10;51.70
34873;DHT22;21084;51.098;14.506;2023-04-25T06:54:37;10.50;50.70
34873;DHT22;21084;51.098;14.506;2023-04-25T06:57:06;10.50;49.50
34873;DHT22;21084;51.098;14.506;2023-04-25T06:59:35;10.60;49.20
34873;DHT22;21084;51.098;14.506;2023-04-25T07:02:03;10.20;48.70
34873;DHT22;21084;51.098;14.506;2023-04-25T07:04:33;10.10;48.30
34873;DHT22;21084;51.098;14.506;2023-04-25T07:07:03;9.90;49.60
34873;DHT22;21084;51.098;14.506;2023-04-25T07:09:32;10.00;49.70
34873;DHT22;21084;51.098;14.506;2023-04-25T07:12:01;10.10;49.10
34873;DHT22;21084;51.098;14.506;2023-04-25T07:14:30;10.30;49.60
34873;DHT22;21084;51.098;14.506;2023-04-25T07:16:58;10.10;48.50
34873;DHT22;21084;51.098;14.506;2023-04-25T07:19:27;10.10;49.00
34873;DHT22;21084;51.098;14.506;2023-04-25T07:21:56;10.40;49.60
34873;DHT22;21084;51.098;14.506;2023-04-25T07:24:26;10.50;49.20
34873;DHT22;21084;51.098;14.506;2023-04-25T07:26:55;10.90;48.90
34873;DHT22;21084;51.098;14.506;2023-04-25T07:29:25;11.10;48.60
34873;DHT22;21084;51.098;14.506;2023-04-25T07:31:53;11.40;46.90
34873;DHT22;21084;51.098;14.506;2023-04-25T07:34:22;11.20;45.90
34873;DHT22;21084;51.098;14.506;2023-04-25T07:36:50;11.20;46.80
34873;DHT22;21084;51.098;14.506;2023-04-25T07:39:19;10.90;47.50
34873;DHT22;21084;51.098;14.506;2023-04-25T07:41:51;10.80;47.60
34873;DHT22;21084;51.098;14.506;2023-04-25T07:44:21;11.20;48.30
34873;DHT22;21084;51.098;14.506;2023-04-25T07:46:50;11.20;46.60
34873;DHT22;21084;51.098;14.506;2023-04-25T07:49:19;11.10;45.90
34873;DHT22;21084;51.098;14.506;2023-04-25T07:51:48;11.70;47.30
34873;DHT22;21084;51.098;14.506;2023-04-25T07:54:17;11.20;44.70
34873;DHT22;21084;51.098;14.506;2023-04-25T07:56:46;10.80;46.40
34873;DHT22;21084;51.098;14.506;2023-04-25T07:59:21;10.50;47.20
34873;DHT22;21084;51.098;14.506;2023-04-25T08:01:50;11.00;46.70
34873;DHT22;21084;51.098;14.506;2023-04-25T08:04:19;10.90;47.00
34873;DHT22;21084;51.098;14.506;2023-04-25T08:06:48;11.30;47.10
34873;DHT22;21084;51.098;14.506;2023-04-25T08:09:17;11.00;47.10
34873;DHT22;21084;51.098;14.506;2023-04-25T08:11:46;11.00;47.50
34873;DHT22;21084;51.098;14.506;2023-04-25T08:14:15;11.50;48.00
34873;DHT22;21084;51.098;14.506;2023-04-25T08:16:45;11.10;46.60
34873;DHT22;21084;51.098;14.506;2023-04-25T08:19:14;10.80;47.40
34873;DHT22;21084;51.098;14.506;2023-04-25T08:21:43;11.50;45.70
34873;DHT22;21084;51.098;14.506;2023-04-25T08:24:12;11.90;45.60
34873;DHT22;21084;51.098;14.506;2023-04-25T08:26:40;11.80;44.60
34873;DHT22;21084;51.098;14.506;2023-04-25T08:29:09;11.80;45.60
34873;DHT22;21084;51.098;14.506;2023-04-25T08:31:38;11.70;45.40
34873;DHT22;21084;51.098;14.506;2023-04-25T08:34:08;11.80;44.60
34873;DHT22;21084;51.098;14.506;2023-04-25T08:36:37;11.10;45.80
34873;DHT22;21084;51.098;14.506;2023-04-25T08:39:06;10.90;45.80
34873;DHT22;21084;51.098;14.506;2023-04-25T08:41:37;11.30;45.90
34873;DHT22;21084;51.098;14.506;2023-04-25T08:44:06;12.20;46.50
34873;DHT22;21084;51.098;14.506;2023-04-25T08:46:38;12.70;43.90
34873;DHT22;21084;51.098;14.506;2023-04-25T08:49:10;12.10;42.70
34873;DHT22;21084;51.098;14.506;2023-04-25T08:51:44;11.90;43.50
34873;DHT22;21084;51.098;14.506;2023-04-25T08:54:15;12.60;43.70
34873;DHT22;21084;51.098;14.506;2023-04-25T08:57:02;12.30;43.90
34873;DHT22;21084;51.098;14.506;2023-04-25T08:59:32;12.10;43.30
34873;DHT22;21084;51.098;14.506;2023-04-25T09:02:03;12.60;43.70
34873;DHT22;21084;51.098;14.506;2023-04-25T09:04:34;12.20;43.10
34873;DHT22;21084;51.098;14.506;2023-04-25T09:07:04;11.80;44.00
34873;DHT22;21084;51.098;14.506;2023-04-25T09:09:33;11.00;45.70
34873;DHT22;21084;51.098;14.506;2023-04-25T09:12:01;11.10;47.00
34873;DHT22;21084;51.098;14.506;2023-04-25T09:14:30;11.10;47.00
34873;DHT22;21084;51.098;14.506;2023-04-25T09:17:02;11.40;46.60
34873;DHT22;21084;51.098;14.506;2023-04-25T09:19:34;11.90;45.80
34873;DHT22;21084;51.098;14.506;2023-04-25T09:22:08;12.90;45.30
34873;DHT22;21084;51.098;14.506;2023-04-25T09:24:38;14.00;42.60
34873;DHT22;21084;51.098;14.506;2023-04-25T09:27:06;13.70;41.20
34873;DHT22;21084;51.098;14.506;2023-04-25T09:29:37;12.40;41.50
34873;DHT22;21084;51.098;14.506;2023-04-25T09:32:16;11.90;44.60
34873;DHT22;21084;51.098;14.506;2023-04-25T09:34:49;12.40;44.80
34873;DHT22;21084;51.098;14.506;2023-04-25T09:37:23;12.90;43.70
34873;DHT22;21084;51.098;14.506;2023-04-25T09:39:54;12.60;43.20
34873;DHT22;21084;51.098;14.506;2023-04-25T09:42:23;12.30;42.50
34873;DHT22;21084;51.098;14.506;2023-04-25T09:44:53;12.60;43.20
34873;DHT22;21084;51.098;14.506;2023-04-25T09:47:22;12.30;43.50
34873;DHT22;21084;51.098;14.506;2023-04-25T09:49:54;12.50;44.20
34873;DHT22;21084;51.098;14.506;2023-04-25T09:52:23;12.00;44.40
34873;DHT22;21084;51.098;14.506;2023-04-25T09:54:53;11.70;45.40
34873;DHT22;21084;51.098;14.506;2023-04-25T09:57:23;11.60;45.30
34873;DHT22;21084;51.098;14.506;2023-04-25T09:59:52;12.00;45.30
34873;DHT22;21084;51.098;14.506;2023-04-25T10:02:22;12.40;45.40
34873;DHT22;21084;51.098;14.506;2023-04-25T10:04:54;12.20;44.90
34873;DHT22;21084;51.098;14.506;2023-04-25T10:07:26;12.00;44.40
34873;DHT22;21084;51.098;14.506;2023-04-25T10:10:00;11.60;45.00
34873;DHT22;21084;51.098;14.506;2023-04-25T10:12:32;12.20;45.90
34873;DHT22;21084;51.098;14.506;2023-04-25T10:15:03;13.40;44.00
34873;DHT22;21084;51.098;14.506;2023-04-25T10:17:33;13.10;43.30
34873;DHT22;21084;51.098;14.506;2023-04-25T10:20:05;13.10;44.40
34873;DHT22;21084;51.098;14.506;2023-04-25T10:22:41;13.10;43.80
34873;DHT22;21084;51.098;14.506;2023-04-25T10:25:10;12.60;43.60
34873;DHT22;21084;51.098;14.506;2023-04-25T10:27:39;12.40;44.20
34873;DHT22;21084;51.098;14.506;2023-04-25T10:30:10;12.60;45.00
34873;DHT22;21084;51.098;14.506;2023-04-25T10:32:41;12.50;44.90
34873;DHT22;21084;51.098;14.506;2023-04-25T10:35:13;12.00;45.30
34873;DHT22;21084;51.098;14.506;2023-04-25T10:38:04;11.90;45.90
34873;DHT22;21084;51.098;14.506;2023-04-25T10:40:33;11.70;46.80
34873;DHT22;21084;51.098;14.506;2023-04-25T10:43:36;11.70;47.50
34873;DHT22;21084;51.098;14.506;2023-04-25T10:46:18;11.60;48.10
34873;DHT22;21084;51.098;14.506;2023-04-25T10:48:49;11.30;48.90
34873;DHT22;21084;51.098;14.506;2023-04-25T10:51:21;11.00;49.10
34873;DHT22;21084;51.098;14.506;2023-04-25T10:53:58;10.70;48.10
34873;DHT22;21084;51.098;14.506;2023-04-25T10:56:28;10.40;50.10
34873;DHT22;21084;51.098;14.506;2023-04-25T10:59:07;10.60;50.10
34873;DHT22;21084;51.098;14.506;2023-04-25T11:01:39;10.90;49.20
34873;DHT22;21084;51.098;14.506;2023-04-25T11:04:20;11.00;48.20
34873;DHT22;21084;51.098;14.506;2023-04-25T11:07:10;11.10;49.00
34873;DHT22;21084;51.098;14.506;2023-04-25T11:09:39;11.10;49.40
34873;DHT22;21084;51.098;14.506;2023-04-25T11:12:09;10.80;49.00
34873;DHT22;21084;51.098;14.506;2023-04-25T11:14:39;10.40;49.80
34873;DHT22;21084;51.098;14.506;2023-04-25T11:17:08;10.40;50.40
34873;DHT22;21084;51.098;14.506;2023-04-25T11:19:38;10.20;51.10
34873;DHT22;21084;51.098;14.506;2023-04-25T11:22:10;9.90;52.50
34873;DHT22;21084;51.098;14.506;2023-04-25T11:24:38;9.90;52.00
34873;DHT22;21084;51.098;14.506;2023-04-25T11:27:07;10.10;51.40
34873;DHT22;21084;51.098;14.506;2023-04-25T11:29:36;10.30;50.90
34873;DHT22;21084;51.098;14.506;2023-04-25T11:32:05;10.40;49.50
34873;DHT22;21084;51.098;14.506;2023-04-25T11:34:34;10.50;48.90
34873;DHT22;21084;51.098;14.506;2023-04-25T11:37:03;11.00;49.50
34873;DHT22;21084;51.098;14.506;2023-04-25T11:39:35;11.40;49.60
34873;DHT22;21084;51.098;14.506;2023-04-25T11:42:04;10.80;48.10
34873;DHT22;21084;51.098;14.506;2023-04-25T11:44:38;10.80;49.30
34873;DHT22;21084;51.098;14.506;2023-04-25T11:47:07;10.90;49.40
34873;DHT22;21084;51.098;14.506;2023-04-25T11:49:35;10.60;49.70
34873;DHT22;21084;51.098;14.506;2023-04-25T11:52:06;10.60;50.10
34873;DHT22;21084;51.098;14.506;2023-04-25T11:54:37;10.50;50.20
34873;DHT22;21084;51.098;14.506;2023-04-25T11:57:07;10.80;49.70
34873;DHT22;21084;51.098;14.506;2023-04-25T11:59:36;10.90;49.60
34873;DHT22;21084;51.098;14.506;2023-04-25T12:02:04;10.90;49.80
34873;DHT22;21084;51.098;14.506;2023-04-25T12:04:34;11.10;50.00
34873;DHT22;21084;51.098;14.506;2023-04-25T12:07:04;10.50;49.50
34873;DHT22;21084;51.098;14.506;2023-04-25T12:09:33;10.20;50.40
34873;DHT22;21084;51.098;14.506;2023-04-25T12:12:04;9.90;52.80
34873;DHT22;21084;51.098;14.506;2023-04-25T12:14:35;9.40;54.70
34873;DHT22;21084;51.098;14.506;2023-04-25T12:17:04;9.20;56.30
34873;DHT22;21084;51.098;14.506;2023-04-25T12:19:36;9.20;56.60
34873;DHT22;21084;51.098;14.506;2023-04-25T12:22:20;9.20;56.50
34873;DHT22;21084;51.098;14.506;2023-04-25T12:24:49;9.20;56.00
34873;DHT22;21084;51.098;14.506;2023-04-25T12:27:21;9.30;56.50
34873;DHT22;21084;51.098;14.506;2023-04-25T12:29:51;9.40;56.50
34873;DHT22;21084;51.098;14.506;2023-04-25T12:32:20;9.50;56.80
34873;DHT22;21084;51.098;14.506;2023-04-25T12:34:49;9.40;57.10
34873;DHT22;21084;51.098;14.506;2023-04-25T12:37:17;9.30;57.60
34873;DHT22;21084;51.098;14.506;2023-04-25T12:39:46;9.00;59.20
34873;DHT22;21084;51.098;14.506;2023-04-25T12:42:15;9.00;61.90
34873;DHT22;21084;51.098;14.506;2023-04-25T12:44:45;8.90;61.40
34873;DHT22;21084;51.098;14.506;2023-04-25T12:47:14;8.90;60.60
34873;DHT22;21084;51.098;14.506;2023-04-25T12:49:43;9.00;61.30
34873;DHT22;21084;51.098;14.506;2023-04-25T12:52:12;8.60;60.00
34873;DHT22;21084;51.098;14.506;2023-04-25T12:54:41;8.80;61.40
34873;DHT22;21084;51.098;14.506;2023-04-25T12:57:09;9.30;59.50
34873;DHT22;21084;51.098;14.506;2023-04-25T12:59:38;9.60;57.70
34873;DHT22;21084;51.098;14.506;2023-04-25T13:02:08;9.50;56.70
34873;DHT22;21084;51.098;14.506;2023-04-25T13:04:38;9.60;56.80
34873;DHT22;21084;51.098;14.506;2023-04-25T13:07:07;9.50;56.40
34873;DHT22;21084;51.098;14.506;2023-04-25T13:09:35;9.50;56.40
34873;DHT22;21084;51.098;14.506;2023-04-25T13:12:05;9.70;56.30
34873;DHT22;21084;51.098;14.506;2023-04-25T13:14:34;9.60;54.40
34873;DHT22;21084;51.098;14.506;2023-04-25T13:17:03;9.80;54.10
34873;DHT22;21084;51.098;14.506;2023-04-25T13:19:33;10.00;53.10
34873;DHT22;21084;51.098;14.506;2023-04-25T13:22:02;9.90;52.50
34873;DHT22;21084;51.098;14.506;2023-04-25T13:24:31;9.80;52.90
34873;DHT22;21084;51.098;14.506;2023-04-25T13:26:59;9.80;53.30
34873;DHT22;21084;51.098;14.506;2023-04-25T13:29:28;9.80;52.80
34873;DHT22;21084;51.098;14.506;2023-04-25T13:31:57;9.70;53.10
34873;DHT22;21084;51.098;14.506;2023-04-25T13:34:25;9.70;53.40
34873;DHT22;21084;51.098;14.506;2023-04-25T13:36:55;9.90;53.40
34873;DHT22;21084;51.098;14.506;2023-04-25T13:39:24;10.20;52.40
34873;DHT22;21084;51.098;14.506;2023-04-25T13:41:52;10.30;51.40
34873;DHT22;21084;51.098;14.506;2023-04-25T13:44:20;10.20;51.40
34873;DHT22;21084;51.098;14.506;2023-04-25T13:46:49;10.20;51.90
34873;DHT22;21084;51.098;14.506;2023-04-25T13:49:18;10.00;51.60
34873;DHT22;21084;51.098;14.506;2023-04-25T13:51:47;10.00;51.80
34873;DHT22;21084;51.098;14.506;2023-04-25T13:54:17;10.20;51.60
34873;DHT22;21084;51.098;14.506;2023-04-25T13:56:45;10.30;50.90
34873;DHT22;21084;51.098;14.506;2023-04-25T13:59:14;10.20;49.90
34873;DHT22;21084;51.098;14.506;2023-04-25T14:01:42;10.10;49.30
34873;DHT22;21084;51.098;14.506;2023-04-25T14:04:11;9.90;50.70
34873;DHT22;21084;51.098;14.506;2023-04-25T14:06:40;9.70;50.60
34873;DHT22;21084;51.098;14.506;2023-04-25T14:09:09;9.60;51.50
34873;DHT22;21084;51.098;14.506;2023-04-25T14:11:41;9.30;51.80
34873;DHT22;21084;51.098;14.506;2023-04-25T14:14:10;9.20;53.60
34873;DHT22;21084;51.098;14.506;2023-04-25T14:16:39;9.00;55.00
34873;DHT22;21084;51.098;14.506;2023-04-25T14:19:07;8.70;55.60
34873;DHT22;21084;51.098;14.506;2023-04-25T14:21:36;8.40;56.50
34873;DHT22;21084;51.098;14.506;2023-04-25T14:24:05;8.30;57.80
34873;DHT22;21084;51.098;14.506;2023-04-25T14:26:34;8.10;58.70
34873;DHT22;21084;51.098;14.506;2023-04-25T14:29:05;8.10;59.50
34873;DHT22;21084;51.098;14.506;2023-04-25T14:31:34;8.10;59.90
34873;DHT22;21084;51.098;14.506;2023-04-25T14:34:03;8.20;60.40
34873;DHT22;21084;51.098;14.506;2023-04-25T14:36:33;8.10;59.30
34873;DHT22;21084;51.098;14.506;2023-04-25T14:39:02;8.30;59.50
34873;DHT22;21084;51.098;14.506;2023-04-25T14:41:32;8.40;57.60
34873;DHT22;21084;51.098;14.506;2023-04-25T14:44:01;8.60;57.30
34873;DHT22;21084;51.098;14.506;2023-04-25T14:46:31;8.60;56.20
34873;DHT22;21084;51.098;14.506;2023-04-25T14:49:00;8.70;55.40
34873;DHT22;21084;51.098;14.506;2023-04-25T14:51:29;8.80;55.80
34873;DHT22;21084;51.098;14.506;2023-04-25T14:53:58;8.80;54.80
34873;DHT22;21084;51.098;14.506;2023-04-25T14:56:27;8.90;54.80
34873;DHT22;21084;51.098;14.506;2023-04-25T14:58:55;8.90;54.40
34873;DHT22;21084;51.098;14.506;2023-04-25T15:01:24;9.00;54.30
34873;DHT22;21084;51.098;14.506;2023-04-25T15:03:54;9.10;54.10
34873;DHT22;21084;51.098;14.506;2023-04-25T15:06:25;9.20;54.30
34873;DHT22;21084;51.098;14.506;2023-04-25T15:08:54;9.30;54.10
34873;DHT22;21084;51.098;14.506;2023-04-25T15:11:22;9.30;54.30
34873;DHT22;21084;51.098;14.506;2023-04-25T15:13:51;9.40;54.50
34873;DHT22;21084;51.098;14.506;2023-04-25T15:16:20;9.60;54.00
34873;DHT22;21084;51.098;14.506;2023-04-25T15:18:49;9.50;53.00
34873;DHT22;21084;51.098;14.506;2023-04-25T15:21:19;9.40;53.40
34873;DHT22;21084;51.098;14.506;2023-04-25T15:23:48;9.10;53.10
34873;DHT22;21084;51.098;14.506;2023-04-25T15:26:17;8.90;53.80
34873;DHT22;21084;51.098;14.506;2023-04-25T15:28:46;8.80;54.70
34873;DHT22;21084;51.098;14.506;2023-04-25T15:31:14;8.60;55.60
34873;DHT22;21084;51.098;14.506;2023-04-25T15:33:43;8.60;55.80
34873;DHT22;21084;51.098;14.506;2023-04-25T15:36:11;8.60;54.60
34873;DHT22;21084;51.098;14.506;2023-04-25T15:38:41;8.40;53.70
34873;DHT22;21084;51.098;14.506;2023-04-25T15:41:10;8.40;53.70